Time;durP1;ratioP1;P1;durP2;ratioP2;P2;SDS_P1;SDS_P2;PMS_P1;PMS_P2;Temp;Humidity;BMP_temperature;BMP_pressure;BME280_temperature;BME280_humidity;BME280_pressure;Samples;Min_cycle;Max_cycle;Signal;HPM_P1;HPM_P2
2022/07/06 00:01:25;;;;;;;1.92;1.30;;;;;;;20.79;100.00;98111.34;5092013;28;20094;-53
2022/07/06 00:03:51;;;;;;;4.25;1.52;;;;;;;20.84;100.00;98107.94;5092145;28;20128;-52
2022/07/06 00:06:17;;;;;;;2.38;1.42;;;;;;;20.54;100.00;98123.47;5091798;28;20056;-52
2022/07/06 00:08:44;;;;;;;1.45;1.20;;;;;;;20.55;100.00;98132.59;5092229;28;20079;-51
2022/07/06 00:11:11;;;;;;;3.10;1.60;;;;;;;20.52;100.00;98145.41;5091806;28;20113;-50
2022/07/06 00:13:37;;;;;;;2.45;1.40;;;;;;;20.57;100.00;98132.91;5092229;28;20091;-49
2022/07/06 00:16:04;;;;;;;3.38;1.50;;;;;;;20.26;100.00;98188.53;5091710;28;20091;-53
2022/07/06 00:18:31;;;;;;;1.83;1.50;;;;;;;20.14;100.00;98202.06;5091753;28;20048;-51
2022/07/06 00:20:58;;;;;;;1.60;1.50;;;;;;;20.29;100.00;98166.13;5092225;28;20090;-52
2022/07/06 00:23:24;;;;;;;2.75;1.60;;;;;;;20.26;100.00;98191.31;5091574;28;20087;-51
2022/07/06 00:25:50;;;;;;;1.92;1.35;;;;;;;20.36;100.00;98173.44;5091627;28;20136;-50
2022/07/06 00:28:17;;;;;;;2.65;1.65;;;;;;;20.36;100.00;98143.63;5091561;28;20055;-51
2022/07/06 00:30:43;;;;;;;2.35;1.23;;;;;;;20.26;100.00;98133.66;5091798;28;20052;-52
2022/07/06 00:33:09;;;;;;;4.50;1.83;;;;;;;20.22;100.00;98128.22;5091673;28;20156;-50
2022/07/06 00:35:36;;;;;;;2.85;1.40;;;;;;;20.17;100.00;98145.50;5092250;28;20497;-50
2022/07/06 00:38:03;;;;;;;4.10;1.65;;;;;;;20.19;100.00;98108.88;5091585;28;20469;-50
2022/07/06 00:40:30;;;;;;;5.20;1.30;;;;;;;20.36;100.00;98120.53;5092105;28;20048;-48
2022/07/06 00:42:56;;;;;;;6.03;1.50;;;;;;;20.21;100.00;98128.69;5091596;28;20142;-48
2022/07/06 00:45:23;;;;;;;2.55;1.40;;;;;;;20.29;100.00;98101.34;5091409;28;20134;-50
2022/07/06 00:47:50;;;;;;;2.63;1.20;;;;;;;20.17;100.00;98089.84;5091504;28;20048;-49
2022/07/06 00:50:20;;;;;;;3.08;1.48;;;;;;;20.28;100.00;98097.03;5091267;28;20055;-50
2022/07/06 00:52:48;;;;;;;1.45;1.10;;;;;;;20.21;100.00;98070.25;5091306;28;20048;-50
2022/07/06 00:55:17;;;;;;;3.40;1.35;;;;;;;20.30;100.00;98075.84;5091340;28;20048;-50
2022/07/06 00:57:43;;;;;;;1.73;1.48;;;;;;;20.05;100.00;98082.34;5091296;28;20400;-49
2022/07/06 01:00:12;;;;;;;2.15;1.40;;;;;;;20.28;100.00;98071.97;5091251;28;20197;-53
2022/07/06 01:02:39;;;;;;;2.63;1.65;;;;;;;20.13;100.00;98078.09;5091399;28;20055;-51
2022/07/06 01:05:06;;;;;;;5.55;1.17;;;;;;;20.16;100.00;98065.28;5090972;28;20048;-50
2022/07/06 01:07:33;;;;;;;2.92;1.50;;;;;;;20.18;100.00;98046.09;5091404;28;20080;-49
2022/07/06 01:10:01;;;;;;;3.22;1.20;;;;;;;20.15;100.00;98070.03;5089783;28;20135;-48
2022/07/06 01:12:28;;;;;;;3.10;1.58;;;;;;;20.31;100.00;98074.63;5090890;28;20139;-52
2022/07/06 01:14:55;;;;;;;4.63;1.50;;;;;;;20.28;100.00;98080.31;5090902;28;20052;-52
2022/07/06 01:17:21;;;;;;;2.17;1.20;;;;;;;20.27;100.00;98082.34;5090760;28;20048;-51
2022/07/06 01:19:48;;;;;;;2.75;1.38;;;;;;;19.83;100.00;98121.34;5090805;28;20139;-51
2022/07/06 01:22:15;;;;;;;2.38;1.58;;;;;;;20.05;100.00;98138.00;5090723;28;20056;-50
2022/07/06 01:24:41;;;;;;;1.95;1.33;;;;;;;20.03;100.00;98140.47;5090812;28;20048;-53
2022/07/06 01:27:08;;;;;;;1.95;1.40;;;;;;;20.01;100.00;98156.84;5090758;28;20062;-51
2022/07/06 01:29:35;;;;;;;3.95;1.25;;;;;;;20.01;100.00;98175.53;5090585;28;20083;-53
2022/07/06 01:32:01;;;;;;;1.70;1.27;;;;;;;19.93;100.00;98170.22;5090470;28;20138;-52
2022/07/06 01:34:28;;;;;;;2.92;1.45;;;;;;;19.88;100.00;98162.47;5090862;28;20097;-55
2022/07/06 01:36:54;;;;;;;1.75;1.27;;;;;;;19.97;100.00;98170.09;5090551;28;20084;-53
2022/07/06 01:39:21;;;;;;;3.13;1.52;;;;;;;19.85;100.00;98182.06;5090435;28;20048;-53
2022/07/06 01:41:48;;;;;;;4.47;1.42;;;;;;;19.83;100.00;98193.63;5090922;28;20052;-52
2022/07/06 01:44:14;;;;;;;1.95;1.30;;;;;;;19.85;100.00;98163.34;5090550;28;20083;-50
2022/07/06 01:46:41;;;;;;;2.58;1.40;;;;;;;19.95;100.00;98180.91;5090332;28;20134;-50
2022/07/06 01:49:07;;;;;;;1.95;1.20;;;;;;;19.80;100.00;98191.75;5090417;28;20059;-51
2022/07/06 01:51:33;;;;;;;1.92;1.40;;;;;;;19.86;100.00;98191.94;5090711;28;20536;-53
2022/07/06 01:54:00;;;;;;;2.28;1.40;;;;;;;19.94;100.00;98185.69;5090606;28;20052;-49
2022/07/06 01:56:27;;;;;;;3.50;1.45;;;;;;;19.91;100.00;98180.25;5090658;28;20052;-52
2022/07/06 01:58:53;;;;;;;3.80;1.30;;;;;;;19.67;100.00;98232.72;5090494;28;20051;-50
2022/07/06 02:01:20;;;;;;;2.60;1.48;;;;;;;19.72;100.00;98235.69;5090757;28;20054;-53
2022/07/06 02:03:47;;;;;;;4.80;1.98;;;;;;;19.75;100.00;98214.56;5090860;28;20044;-54
2022/07/06 02:06:14;;;;;;;1.65;1.25;;;;;;;19.56;100.00;98237.81;5090657;28;20054;-49
2022/07/06 02:08:41;;;;;;;1.90;1.40;;;;;;;19.90;100.00;98196.16;5090487;28;20142;-53
2022/07/06 02:11:09;;;;;;;2.90;1.45;;;;;;;19.64;100.00;98214.94;5090271;28;20510;-50
2022/07/06 02:13:36;;;;;;;2.80;1.27;;;;;;;19.68;100.00;98212.03;5090623;28;20472;-50
2022/07/06 02:16:04;;;;;;;2.00;1.40;;;;;;;19.52;100.00;98247.06;5090253;28;20054;-51
2022/07/06 02:18:30;;;;;;;2.63;1.33;;;;;;;19.66;100.00;98250.63;5090708;28;20058;-50
2022/07/06 02:20:57;;;;;;;4.72;1.67;;;;;;;19.51;100.00;98251.06;5089895;28;20052;-53
2022/07/06 02:23:23;;;;;;;3.05;1.33;;;;;;;19.58;100.00;98285.44;5090528;28;20629;-51
2022/07/06 02:25:49;;;;;;;5.80;1.67;;;;;;;19.56;100.00;98313.69;5089917;28;20507;-49
2022/07/06 02:28:16;;;;;;;3.72;1.40;;;;;;;19.49;100.00;98298.00;5090247;28;20181;-53
2022/07/06 02:30:43;;;;;;;3.17;1.50;;;;;;;19.46;100.00;98298.91;5089862;28;20052;-52
2022/07/06 02:33:09;;;;;;;1.77;1.50;;;;;;;19.55;100.00;98316.91;5089959;28;20051;-53
2022/07/06 02:35:37;;;;;;;6.75;1.58;;;;;;;19.74;100.00;98274.97;5090009;28;20572;-51
2022/07/06 02:38:03;;;;;;;2.97;1.27;;;;;;;19.73;100.00;98262.31;5089726;28;20048;-49
2022/07/06 02:40:29;;;;;;;2.85;1.48;;;;;;;19.56;100.00;98273.97;5089694;28;20048;-53
2022/07/06 02:42:56;;;;;;;2.05;1.30;;;;;;;19.78;100.00;98251.84;5089544;28;20048;-50
2022/07/06 02:45:22;;;;;;;2.75;1.50;;;;;;;19.57;100.00;98267.97;5089720;28;20151;-52
2022/07/06 02:47:50;;;;;;;4.72;1.40;;;;;;;19.71;100.00;98231.38;5089403;28;20146;-51
2022/07/06 02:50:17;;;;;;;2.28;1.60;;;;;;;19.72;100.00;98223.81;5089904;28;20051;-50
2022/07/06 02:52:43;;;;;;;1.83;1.40;;;;;;;19.81;100.00;98220.34;5089566;28;20088;-50
2022/07/06 02:55:09;;;;;;;1.60;1.50;;;;;;;19.85;100.00;98271.81;5089663;28;20079;-50
2022/07/06 02:57:36;;;;;;;2.78;1.55;;;;;;;19.64;100.00;98292.78;5089452;28;20486;-49
2022/07/06 03:00:02;;;;;;;2.85;1.60;;;;;;;19.57;100.00;98265.19;5089977;28;20047;-49
2022/07/06 03:02:29;;;;;;;3.00;1.45;;;;;;;19.63;100.00;98246.75;5089344;28;20059;-50
2022/07/06 03:04:56;;;;;;;3.78;1.40;;;;;;;19.59;100.00;98236.94;5089419;28;20052;-49
2022/07/06 03:07:23;;;;;;;5.65;1.92;;;;;;;19.62;100.00;98316.66;5089755;28;20044;-49
2022/07/06 03:09:49;;;;;;;2.15;1.55;;;;;;;19.72;100.00;98287.75;5089354;28;20146;-49
2022/07/06 03:12:16;;;;;;;4.35;1.80;;;;;;;19.75;100.00;98261.84;5089352;28;20051;-50
2022/07/06 03:14:42;;;;;;;2.85;1.35;;;;;;;19.68;100.00;98298.22;5089472;28;20469;-49
2022/07/06 03:17:09;;;;;;;4.40;1.70;;;;;;;19.49;100.00;98323.03;5089268;28;20048;-49
2022/07/06 03:19:35;;;;;;;4.30;1.70;;;;;;;19.38;100.00;98377.38;5089176;28;20052;-49
2022/07/06 03:22:03;;;;;;;5.30;1.70;;;;;;;19.54;100.00;98327.25;5089116;28;20056;-50
2022/07/06 03:24:29;;;;;;;3.72;1.50;;;;;;;19.51;100.00;98328.91;5089147;28;20063;-53
2022/07/06 03:26:55;;;;;;;2.63;1.50;;;;;;;19.43;100.00;98337.94;5089330;28;20561;-50
2022/07/06 03:29:21;;;;;;;1.67;1.45;;;;;;;19.56;100.00;98349.03;5089190;28;20048;-50
2022/07/06 03:31:48;;;;;;;5.25;1.48;;;;;;;19.23;100.00;98305.56;5089036;28;20052;-49
2022/07/06 03:34:14;;;;;;;4.85;1.88;;;;;;;19.41;100.00;98318.91;5091614;28;20058;-52
2022/07/06 03:36:40;;;;;;;4.63;1.50;;;;;;;19.21;100.00;98288.56;5092473;28;20060;-49
2022/07/06 03:39:07;;;;;;;4.38;1.60;;;;;;;19.38;100.00;98302.34;5092576;28;20109;-53
2022/07/06 03:41:34;;;;;;;8.85;1.80;;;;;;;19.41;100.00;98285.56;5092460;28;20534;-51
2022/07/06 03:44:00;;;;;;;3.30;1.83;;;;;;;19.47;100.00;98305.25;5092676;28;20052;-49
2022/07/06 03:46:27;;;;;;;4.65;1.40;;;;;;;19.31;100.00;98317.25;5092734;28;20050;-50
2022/07/06 03:48:53;;;;;;;2.03;1.50;;;;;;;19.16;100.00;98307.78;5092392;28;20081;-50
2022/07/06 03:51:19;;;;;;;4.65;1.70;;;;;;;19.19;100.00;98352.16;5092511;28;20048;-49
2022/07/06 03:53:46;;;;;;;3.55;1.50;;;;;;;19.16;100.00;98330.81;5092426;28;20131;-50
2022/07/06 03:56:32;;;;;;;3.25;1.60;;;;;;;19.23;100.00;98352.03;5092412;28;20048;-50
2022/07/06 03:59:01;;;;;;;4.10;2.10;;;;;;;19.21;100.00;98329.47;5092087;28;20052;-50
2022/07/06 04:01:27;;;;;;;5.88;1.83;;;;;;;19.31;100.00;98336.69;5092350;28;20091;-50
2022/07/06 04:03:54;;;;;;;2.78;1.80;;;;;;;19.22;100.00;98319.91;5092032;28;20526;-54
2022/07/06 04:06:21;;;;;;;4.10;1.80;;;;;;;19.18;100.00;98361.69;5091948;28;20090;-50
2022/07/06 04:08:47;;;;;;;4.10;1.60;;;;;;;19.21;100.00;98385.81;5092104;28;20494;-50
2022/07/06 04:11:14;;;;;;;3.67;1.52;;;;;;;19.24;100.00;98389.72;5092021;28;20048;-53
2022/07/06 04:13:40;;;;;;;1.60;1.50;;;;;;;19.14;100.00;98380.47;5091909;28;20056;-52
2022/07/06 04:16:07;;;;;;;4.22;1.73;;;;;;;19.13;100.00;98428.94;5091837;28;20083;-50
2022/07/06 04:18:33;;;;;;;2.65;1.70;;;;;;;19.16;100.00;98430.81;5092039;28;20083;-52
2022/07/06 04:21:00;;;;;;;4.35;1.77;;;;;;;19.21;100.00;98452.50;5092350;28;20079;-52
2022/07/06 04:23:26;;;;;;;3.85;1.77;;;;;;;19.36;100.00;98421.50;5091972;28;20059;-51
2022/07/06 04:25:52;;;;;;;5.75;2.13;;;;;;;19.30;100.00;98424.06;5091782;28;20055;-52
2022/07/06 04:28:19;;;;;;;4.00;1.75;;;;;;;19.46;100.00;98424.00;5091609;28;20502;-53
2022/07/06 04:30:45;;;;;;;3.72;1.70;;;;;;;19.41;100.00;98407.06;5091721;28;20048;-53
2022/07/06 04:33:12;;;;;;;3.40;2.08;;;;;;;19.44;100.00;98422.88;5092155;28;20059;-52
2022/07/06 04:35:38;;;;;;;3.78;2.03;;;;;;;19.46;100.00;98445.41;5091336;28;20059;-53
2022/07/06 04:38:05;;;;;;;6.43;1.85;;;;;;;19.38;100.00;98450.41;5091649;28;20052;-51
2022/07/06 04:40:31;;;;;;;3.97;1.98;;;;;;;19.32;100.00;98449.41;5091545;28;20092;-51
2022/07/06 04:42:57;;;;;;;7.50;1.85;;;;;;;19.35;100.00;98487.44;5091623;28;20056;-54
2022/07/06 04:45:24;;;;;;;3.58;1.60;;;;;;;19.43;100.00;98458.22;5091377;28;20048;-53
2022/07/06 04:47:50;;;;;;;7.50;1.85;;;;;;;19.51;100.00;98419.88;5091585;28;20060;-50
2022/07/06 04:50:17;;;;;;;3.03;1.80;;;;;;;19.64;100.00;98412.34;5091176;28;20051;-50
2022/07/06 04:52:43;;;;;;;8.52;2.08;;;;;;;19.75;100.00;98332.13;5091432;28;20423;-51
2022/07/06 04:55:10;;;;;;;6.97;1.77;;;;;;;19.96;100.00;98271.47;5091115;28;20487;-52
2022/07/06 04:57:36;;;;;;;2.58;2.15;;;;;;;20.18;100.00;98219.41;5091189;28;20052;-53
2022/07/06 05:00:05;;;;;;;2.50;1.90;;;;;;;20.25;100.00;98171.06;5091288;28;20422;-51
2022/07/06 05:02:32;;;;;;;6.90;1.98;;;;;;;20.09;100.00;98179.59;5090880;28;20058;-53
2022/07/06 05:04:58;;;;;;;5.07;1.77;;;;;;;20.43;100.00;98140.56;5091030;28;20150;-52
2022/07/06 05:07:28;;;;;;;4.35;1.90;;;;;;;20.25;100.00;98139.66;5090997;28;20079;-53
2022/07/06 05:09:54;;;;;;;9.50;1.98;;;;;;;20.08;100.00;98109.28;5090833;28;20048;-50
2022/07/06 05:12:20;;;;;;;6.18;2.10;;;;;;;19.88;100.00;98172.81;5090935;28;20419;-51
2022/07/06 05:14:46;;;;;;;7.93;2.13;;;;;;;19.95;100.00;98153.84;5091231;28;20083;-50
2022/07/06 05:17:13;;;;;;;4.75;1.83;;;;;;;19.95;100.00;98173.31;5091142;28;20117;-51
2022/07/06 05:19:40;;;;;;;3.97;2.10;;;;;;;20.07;100.00;98165.38;5091019;28;20131;-52
2022/07/06 05:22:06;;;;;;;7.43;2.10;;;;;;;20.08;100.00;98151.00;5090714;28;20066;-54
2022/07/06 05:24:32;;;;;;;10.00;2.40;;;;;;;19.86;100.00;98166.91;5090585;28;20052;-50
2022/07/06 05:26:59;;;;;;;6.80;1.98;;;;;;;19.96;100.00;98157.44;5090625;28;20476;-50
2022/07/06 05:29:25;;;;;;;5.25;2.00;;;;;;;19.94;100.00;98174.56;5090571;28;20044;-50
2022/07/06 05:31:51;;;;;;;6.30;2.35;;;;;;;20.06;100.00;98136.78;5090361;28;20083;-49
2022/07/06 05:34:17;;;;;;;6.20;2.25;;;;;;;20.17;100.00;98167.78;5090650;28;20075;-50
2022/07/06 05:36:44;;;;;;;4.97;2.35;;;;;;;20.27;100.00;98140.78;5090635;28;20108;-50
2022/07/06 05:39:11;;;;;;;3.30;2.17;;;;;;;20.33;100.00;98115.91;5090231;28;20134;-51
2022/07/06 05:41:37;;;;;;;9.95;2.30;;;;;;;20.31;100.00;98080.19;5090624;28;20086;-53
2022/07/06 05:44:04;;;;;;;5.13;2.45;;;;;;;20.45;100.00;98090.75;5090209;28;20056;-52
2022/07/06 05:46:30;;;;;;;6.13;2.80;;;;;;;20.49;100.00;98093.38;5090279;28;20052;-54
2022/07/06 05:51:40;;;;;;;6.22;2.53;;;;;;;20.71;100.00;97995.13;5090198;28;20434;-54
2022/07/06 05:54:07;;;;;;;6.32;2.30;;;;;;;20.70;100.00;97982.44;5090419;28;20043;-52
2022/07/06 05:56:34;;;;;;;12.52;2.40;;;;;;;20.68;100.00;98041.38;5089673;28;20138;-52
2022/07/06 05:59:00;;;;;;;4.82;2.20;;;;;;;20.67;100.00;98000.84;5090524;28;20584;-57
2022/07/06 06:01:26;;;;;;;8.40;2.60;;;;;;;20.70;100.00;98001.94;5090189;28;20610;-54
2022/07/06 06:03:52;;;;;;;5.88;2.38;;;;;;;20.91;100.00;97962.78;5090399;28;20091;-58
2022/07/06 06:06:19;;;;;;;6.72;2.60;;;;;;;20.92;100.00;97941.28;5090074;28;20070;-54
2022/07/06 06:08:45;;;;;;;11.20;2.70;;;;;;;21.20;100.00;97938.50;5090269;28;20134;-54
2022/07/06 06:11:12;;;;;;;9.32;2.92;;;;;;;20.97;100.00;97948.25;5089889;28;20132;-54
2022/07/06 06:13:39;;;;;;;14.98;2.80;;;;;;;21.05;100.00;97925.16;5090152;28;20523;-57
2022/07/06 06:16:05;;;;;;;7.13;2.60;;;;;;;20.51;100.00;97957.34;5089761;28;20052;-54
2022/07/06 06:18:31;;;;;;;12.82;2.75;;;;;;;20.68;100.00;97994.78;5089917;28;20430;-52
2022/07/06 06:20:58;;;;;;;11.10;3.15;;;;;;;20.56;100.00;97989.34;5090004;28;20056;-53
2022/07/06 06:23:24;;;;;;;12.85;2.60;;;;;;;21.10;100.00;97990.66;5089890;28;20062;-53
2022/07/06 06:25:50;;;;;;;10.07;2.58;;;;;;;20.87;100.00;97948.25;5089704;28;20083;-55
2022/07/06 06:28:17;;;;;;;13.30;2.50;;;;;;;20.90;100.00;97950.09;5089916;28;20076;-57
2022/07/06 06:30:43;;;;;;;15.02;3.08;;;;;;;20.81;100.00;97947.31;5089917;28;20052;-55
2022/07/06 06:33:12;;;;;;;12.10;2.80;;;;;;;20.64;100.00;97949.63;5089647;28;20055;-56
2022/07/06 06:35:42;;;;;;;10.05;2.97;;;;;;;20.73;100.00;97962.78;5089692;28;20087;-57
2022/07/06 06:38:08;;;;;;;6.10;2.60;;;;;;;20.86;100.00;97968.22;5089522;28;20048;-55
2022/07/06 06:40:34;;;;;;;11.82;2.67;;;;;;;20.92;100.00;97958.78;5089914;28;20488;-55
2022/07/06 06:43:01;;;;;;;4.25;2.00;;;;;;;20.83;100.00;97958.78;5089516;28;20503;-52
2022/07/06 06:45:28;;;;;;;11.45;2.63;;;;;;;20.65;100.00;98011.66;5089808;28;20056;-53
2022/07/06 06:47:54;;;;;;;11.68;2.72;;;;;;;20.71;100.00;97987.53;5089555;28;20054;-54
2022/07/06 06:50:22;;;;;;;11.48;2.92;;;;;;;21.11;100.00;97995.75;5089311;28;20139;-55
2022/07/06 06:52:49;;;;;;;10.43;2.67;;;;;;;20.77;100.00;97927.19;5089476;28;20415;-53
2022/07/06 06:55:15;;;;;;;8.65;2.35;;;;;;;20.57;100.00;97971.44;5089326;28;20054;-55
2022/07/06 06:57:41;;;;;;;5.10;2.47;;;;;;;20.40;100.00;97956.97;5089338;28;20051;-53
2022/07/06 07:00:09;;;;;;;6.55;2.15;;;;;;;20.71;100.00;97970.81;5089385;28;20135;-53
2022/07/06 07:02:36;;;;;;;15.10;2.78;;;;;;;20.56;100.00;97901.06;5089470;28;20106;-56
2022/07/06 07:05:03;;;;;;;8.00;2.25;;;;;;;20.51;100.00;97929.50;5089220;28;20048;-56
2022/07/06 07:07:30;;;;;;;11.73;2.78;;;;;;;20.76;100.00;97897.00;5089408;28;20551;-56
2022/07/06 07:09:56;;;;;;;14.38;2.85;;;;;;;20.87;100.00;97886.19;5092654;28;20530;-55
2022/07/06 07:12:22;;;;;;;14.27;2.75;;;;;;;21.09;100.00;97863.72;5092818;28;20553;-56
2022/07/06 07:14:49;;;;;;;11.88;2.47;;;;;;;21.00;100.00;97836.66;5092672;28;20052;-57
2022/07/06 07:17:16;;;;;;;6.25;2.80;;;;;;;20.90;100.00;97851.84;5092808;28;20135;-56
2022/07/06 07:19:43;;;;;;;10.25;3.28;;;;;;;21.22;100.00;97797.41;5092686;28;20525;-54
2022/07/06 07:22:09;;;;;;;10.57;2.83;;;;;;;21.18;100.00;97796.81;5092505;28;20054;-53
2022/07/06 07:24:36;;;;;;;12.18;3.20;;;;;;;21.23;100.00;97781.47;5092690;28;20503;-56
2022/07/06 07:27:02;;;;;;;11.48;2.80;;;;;;;21.41;100.00;97786.22;5092648;28;20048;-52
2022/07/06 07:29:28;;;;;;;9.50;2.40;;;;;;;21.50;100.00;97755.53;5092391;28;20576;-53
2022/07/06 07:31:55;;;;;;;6.88;2.38;;;;;;;21.65;100.00;97734.03;5092287;28;20089;-55
2022/07/06 07:34:21;;;;;;;9.20;2.53;;;;;;;21.90;100.00;97732.81;5092650;28;20495;-55
2022/07/06 07:36:48;;;;;;;11.20;2.88;;;;;;;21.89;100.00;97725.66;5092448;28;20596;-57
2022/07/06 07:39:14;;;;;;;5.68;1.80;;;;;;;21.77;100.00;97735.06;5092315;28;20101;-55
2022/07/06 07:41:40;;;;;;;8.88;2.10;;;;;;;21.67;100.00;97748.28;5092106;28;20541;-58
2022/07/06 07:44:07;;;;;;;11.55;2.53;;;;;;;21.75;100.00;97745.91;5092162;28;20472;-58
2022/07/06 07:46:33;;;;;;;7.43;2.10;;;;;;;21.43;100.00;97745.50;5091724;28;20593;-54
2022/07/06 07:48:59;;;;;;;5.22;1.80;;;;;;;21.58;100.00;97731.59;5092180;28;20082;-56
2022/07/06 07:51:26;;;;;;;4.70;1.83;;;;;;;21.37;100.00;97741.81;5092077;28;20540;-55
2022/07/06 07:53:53;;;;;;;11.27;2.05;;;;;;;21.42;100.00;97751.53;5091978;28;20108;-56
2022/07/06 07:56:19;;;;;;;7.10;2.15;;;;;;;21.54;100.00;97731.78;5092094;28;20097;-56
2022/07/06 07:58:48;;;;;;;12.48;2.53;;;;;;;22.01;100.00;97726.66;5092033;28;20048;-56
2022/07/06 08:01:14;;;;;;;9.75;2.28;;;;;;;21.82;100.00;97703.72;5091939;28;20507;-56
2022/07/06 08:03:41;;;;;;;8.75;2.13;;;;;;;22.17;100.00;97719.91;5091867;28;20056;-55
2022/07/06 08:06:07;;;;;;;15.70;2.25;;;;;;;22.41;100.00;97695.47;5092401;28;20398;-57
2022/07/06 08:08:33;;;;;;;6.43;1.70;;;;;;;22.46;100.00;97685.66;5091829;28;20148;-56
2022/07/06 08:11:00;;;;;;;5.20;2.15;;;;;;;22.33;100.00;97691.53;5091765;28;20465;-56
2022/07/06 08:13:27;;;;;;;8.10;2.22;;;;;;;22.18;100.00;97707.47;5091764;28;20052;-56
2022/07/06 08:15:53;;;;;;;8.02;2.53;;;;;;;22.20;100.00;97718.94;5091663;28;20087;-54
2022/07/06 08:18:19;;;;;;;9.63;2.00;;;;;;;22.01;100.00;97724.66;5091475;28;20048;-57
2022/07/06 08:20:45;;;;;;;6.60;1.80;;;;;;;21.85;100.00;97736.22;5091918;28;20369;-57
2022/07/06 08:23:12;;;;;;;4.28;2.30;;;;;;;21.74;100.00;97756.31;5092065;28;20548;-55
2022/07/06 08:25:38;;;;;;;11.85;2.20;;;;;;;21.30;100.00;97786.72;5091761;28;20087;-54
2022/07/06 08:28:05;;;;;;;6.32;2.05;;;;;;;21.47;100.00;97803.88;5091477;28;20490;-53
2022/07/06 08:30:34;;;;;;;5.60;1.75;;;;;;;21.40;100.00;97815.34;5091579;28;20048;-55
2022/07/06 08:33:01;;;;;;;5.45;2.40;;;;;;;21.47;100.00;97784.34;5091940;28;20048;-57
2022/07/06 08:35:27;;;;;;;10.63;2.03;;;;;;;21.24;100.00;97824.81;5091588;28;20310;-57
2022/07/06 08:37:53;;;;;;;2.60;1.80;;;;;;;21.42;100.00;97837.94;5091820;28;20044;-57
2022/07/06 08:40:20;;;;;;;8.20;2.03;;;;;;;21.71;100.00;97784.38;5091421;28;20044;-57
2022/07/06 08:42:49;;;;;;;10.35;2.33;;;;;;;21.93;100.00;97779.28;5091286;28;20138;-55
2022/07/06 08:45:16;;;;;;;4.40;1.95;;;;;;;21.91;100.00;97781.00;5091428;28;20523;-55
2022/07/06 08:47:43;;;;;;;9.23;2.72;;;;;;;21.76;100.00;97772.53;5091321;28;20400;-56
2022/07/06 08:50:10;;;;;;;10.15;1.83;;;;;;;21.89;100.00;97753.56;5091526;28;20048;-56
2022/07/06 08:52:38;;;;;;;5.80;2.40;;;;;;;22.17;100.00;97739.44;5091272;28;20059;-55
2022/07/06 08:55:05;;;;;;;4.75;2.10;;;;;;;22.36;100.00;97710.13;5090944;28;20052;-55
2022/07/06 08:57:32;;;;;;;14.95;2.28;;;;;;;22.48;100.00;97717.44;5090874;28;20048;-53
2022/07/06 08:59:58;;;;;;;6.75;2.50;;;;;;;22.41;100.00;97684.31;5091394;28;20052;-55
2022/07/06 09:02:26;;;;;;;4.07;2.30;;;;;;;22.68;100.00;97674.84;5091159;28;20056;-54
2022/07/06 09:04:56;;;;;;;9.82;2.15;;;;;;;22.48;100.00;97683.16;5091380;28;20052;-58
2022/07/06 09:07:23;;;;;;;6.20;2.20;;;;;;;22.41;100.00;97689.13;5091030;28;20052;-58
2022/07/06 09:09:52;;;;;;;5.10;2.00;;;;;;;22.33;100.00;97683.16;5090992;28;20052;-56
2022/07/06 09:12:18;;;;;;;7.45;2.10;;;;;;;22.30;100.00;97700.88;5090887;28;20059;-59
2022/07/06 09:14:44;;;;;;;5.43;2.00;;;;;;;22.34;100.00;97723.78;5090873;28;20055;-56
2022/07/06 09:17:12;;;;;;;19.17;2.30;;;;;;;22.53;100.00;97697.22;5090720;28;20496;-56
2022/07/06 09:19:40;;;;;;;4.00;1.88;;;;;;;22.70;100.00;97644.44;5090748;28;20063;-55
2022/07/06 09:22:06;;;;;;;5.28;2.05;;;;;;;23.14;100.00;97615.63;5090561;28;20075;-54
2022/07/06 09:24:32;;;;;;;8.48;2.10;;;;;;;22.88;100.00;97607.09;5090697;28;20048;-54
2022/07/06 09:26:59;;;;;;;5.05;2.08;;;;;;;22.94;100.00;97588.41;5090936;28;20094;-53
2022/07/06 09:29:28;;;;;;;3.92;1.80;;;;;;;22.78;100.00;97619.66;5090600;28;20048;-55
2022/07/06 09:31:59;;;;;;;7.03;2.33;;;;;;;22.99;100.00;97618.47;5089588;28;20052;-56
2022/07/06 09:34:26;;;;;;;6.30;2.22;;;;;;;23.08;100.00;97609.19;5090635;28;20506;-53
2022/07/06 09:36:53;;;;;;;3.67;1.98;;;;;;;23.47;100.00;97575.38;5090395;28;20423;-54
2022/07/06 09:39:22;;;;;;;5.60;2.00;;;;;;;22.98;100.00;97588.97;5090695;28;20102;-55
2022/07/06 09:41:50;;;;;;;7.72;2.22;;;;;;;22.78;100.00;97665.13;5090293;28;20056;-55
2022/07/06 09:44:22;;;;;;;3.97;2.20;;;;;;;23.07;100.00;97643.22;5090553;28;20578;-54
2022/07/06 09:46:49;;;;;;;6.97;2.72;;;;;;;22.34;100.00;97664.38;5090463;28;20052;-55
2022/07/06 09:49:18;;;;;;;9.30;2.45;;;;;;;22.39;100.00;97700.78;5090323;28;20048;-57
2022/07/06 09:51:45;;;;;;;9.98;2.63;;;;;;;22.52;100.00;97728.41;5090805;28;20048;-55
2022/07/06 09:54:13;;;;;;;5.00;2.38;;;;;;;22.57;100.00;97710.22;5090817;28;20056;-57
2022/07/06 09:56:40;;;;;;;5.78;2.13;;;;;;;22.42;100.00;97761.22;5090310;28;20090;-54
2022/07/06 09:59:09;;;;;;;8.00;2.38;;;;;;;22.27;100.00;97793.94;5090454;28;20494;-52
2022/07/06 10:01:36;;;;;;;5.78;2.17;;;;;;;22.37;100.00;97828.16;5090049;28;20048;-55
2022/07/06 10:04:02;;;;;;;5.78;2.33;;;;;;;21.95;100.00;97891.16;5090027;28;20056;-55
2022/07/06 10:06:29;;;;;;;4.18;2.30;;;;;;;22.07;100.00;98062.44;5090243;28;20578;-56
2022/07/06 10:08:57;;;;;;;11.75;2.78;;;;;;;22.19;100.00;98290.41;5090171;28;20481;-54
2022/07/06 10:11:25;;;;;;;15.77;3.08;;;;;;;22.01;100.00;98572.22;5090211;28;20044;-53
2022/07/06 10:13:55;;;;;;;23.83;4.78;;;;;;;21.76;100.00;98942.25;5089838;28;20539;-56
2022/07/06 10:16:22;;;;;;;15.80;4.97;;;;;;;21.36;100.00;98992.06;5089991;28;20084;-54
2022/07/06 10:18:50;;;;;;;17.45;5.18;;;;;;;21.05;100.00;98989.69;5089739;28;20052;-52
2022/07/06 10:21:18;;;;;;;10.23;3.70;;;;;;;20.70;100.00;99026.88;5089687;28;20534;-52
2022/07/06 10:23:45;;;;;;;10.85;4.25;;;;;;;20.54;100.00;99064.63;5089661;28;20052;-52
2022/07/06 10:26:12;;;;;;;11.38;4.15;;;;;;;20.41;100.00;99100.69;5089706;28;20052;-55
2022/07/06 10:28:41;;;;;;;51.33;9.73;;;;;;;20.36;100.00;99003.78;5089896;28;20515;-56
2022/07/06 10:31:09;;;;;;;22.27;9.50;;;;;;;20.07;100.00;98925.75;5089582;28;20052;-57
2022/07/06 10:33:36;;;;;;;32.75;11.90;;;;;;;20.04;100.00;98878.53;5089649;28;20052;-57
2022/07/06 10:36:04;;;;;;;15.68;7.00;;;;;;;19.97;100.00;98826.66;5089424;28;20621;-52
2022/07/06 10:38:34;;;;;;;21.30;8.80;;;;;;;19.76;100.00;98802.94;5089570;28;20052;-52
2022/07/06 10:41:05;;;;;;;14.38;7.97;;;;;;;19.76;100.00;98769.56;5089368;28;20106;-57
2022/07/06 10:43:35;;;;;;;16.85;9.40;;;;;;;19.90;100.00;98744.16;5091448;28;20060;-56
2022/07/06 10:46:12;;;;;;;16.92;9.18;;;;;;;19.71;100.00;98720.03;5092641;28;20047;-55
2022/07/06 10:48:40;;;;;;;15.55;8.73;;;;;;;19.65;100.00;98710.66;5093013;28;20091;-57
2022/07/06 10:51:07;;;;;;;14.05;8.52;;;;;;;19.63;100.00;98694.41;5092945;28;20087;-55
2022/07/06 10:53:35;;;;;;;13.77;7.63;;;;;;;19.73;100.00;98676.66;5093088;28;20056;-54
2022/07/06 10:56:04;;;;;;;11.20;7.45;;;;;;;19.70;100.00;98674.75;5092840;28;20100;-55
2022/07/06 10:58:40;;;;;;;15.57;8.52;;;;;;;19.65;100.00;98675.28;5093126;28;20135;-53
2022/07/06 11:01:06;;;;;;;20.95;9.25;;;;;;;19.58;100.00;98655.19;5092873;28;20142;-53
2022/07/06 11:03:44;;;;;;;16.33;9.90;;;;;;;19.64;100.00;98662.59;5093189;28;20059;-52
2022/07/06 11:06:13;;;;;;;11.13;8.05;;;;;;;19.67;100.00;98672.84;5092865;28;20062;-55
2022/07/06 11:08:53;;;;;;;17.63;8.45;;;;;;;19.49;100.00;98678.06;5092885;28;20498;-52
2022/07/06 11:11:22;;;;;;;13.25;7.75;;;;;;;19.47;100.00;98677.72;5093117;28;20066;-54
2022/07/06 11:13:51;;;;;;;11.27;9.13;;;;;;;19.90;100.00;98674.59;5092684;28;20142;-53
2022/07/06 11:16:19;;;;;;;13.25;8.80;;;;;;;19.98;100.00;98675.19;5092805;28;20139;-56
2022/07/06 11:18:58;;;;;;;12.48;7.63;;;;;;;20.18;100.00;98680.56;5092705;28;20088;-52
2022/07/06 11:21:33;;;;;;;14.48;7.72;;;;;;;20.40;100.00;98681.53;5092802;28;20139;-51
2022/07/06 11:24:00;;;;;;;16.42;8.88;;;;;;;20.59;100.00;98679.00;5092510;28;20142;-51
2022/07/06 11:26:27;;;;;;;11.80;8.20;;;;;;;21.04;100.00;98701.06;5092743;28;20135;-51